sensor_id;sensor_type;location;lat;lon;timestamp;temperature;humidity
65044;DHT22;51617;48.158;16.464;2022-07-04T00:02:01;23.20;76.40
65044;DHT22;51617;48.158;16.464;2022-07-04T00:04:26;23.20;76.40
65044;DHT22;51617;48.158;16.464;2022-07-04T00:06:52;23.20;76.60
65044;DHT22;51617;48.158;16.464;2022-07-04T00:09:17;23.10;76.90
65044;DHT22;51617;48.158;16.464;2022-07-04T00:11:43;23.10;76.90
65044;DHT22;51617;48.158;16.464;2022-07-04T00:14:09;23.10;77.00
65044;DHT22;51617;48.158;16.464;2022-07-04T00:16:34;23.10;77.20
65044;DHT22;51617;48.158;16.464;2022-07-04T00:19:00;23.00;77.40
65044;DHT22;51617;48.158;16.464;2022-07-04T00:21:26;22.90;77.80
65044;DHT22;51617;48.158;16.464;2022-07-04T00:23:52;22.80;78.80
65044;DHT22;51617;48.158;16.464;2022-07-04T00:26:17;22.60;78.90
65044;DHT22;51617;48.158;16.464;2022-07-04T00:28:43;22.50;79.40
65044;DHT22;51617;48.158;16.464;2022-07-04T00:31:08;22.50;79.50
65044;DHT22;51617;48.158;16.464;2022-07-04T00:33:34;22.60;79.60
65044;DHT22;51617;48.158;16.464;2022-07-04T00:35:59;22.60;79.70
65044;DHT22;51617;48.158;16.464;2022-07-04T00:38:25;22.70;79.50
65044;DHT22;51617;48.158;16.464;2022-07-04T00:40:51;22.60;78.60
65044;DHT22;51617;48.158;16.464;2022-07-04T00:43:26;22.40;79.10
65044;DHT22;51617;48.158;16.464;2022-07-04T00:45:52;22.20;80.30
65044;DHT22;51617;48.158;16.464;2022-07-04T00:48:18;22.20;80.50
65044;DHT22;51617;48.158;16.464;2022-07-04T00:50:47;22.20;80.90
65044;DHT22;51617;48.158;16.464;2022-07-04T00:53:16;22.20;81.50
65044;DHT22;51617;48.158;16.464;2022-07-04T00:55:42;22.30;81.30
65044;DHT22;51617;48.158;16.464;2022-07-04T00:58:09;22.40;81.00
65044;DHT22;51617;48.158;16.464;2022-07-04T01:00:35;22.50;80.80
65044;DHT22;51617;48.158;16.464;2022-07-04T01:03:01;22.50;80.80
65044;DHT22;51617;48.158;16.464;2022-07-04T01:05:26;22.50;80.90
65044;DHT22;51617;48.158;16.464;2022-07-04T01:07:52;22.50;81.00
65044;DHT22;51617;48.158;16.464;2022-07-04T01:10:17;22.40;81.30
65044;DHT22;51617;48.158;16.464;2022-07-04T01:12:43;22.30;81.10
65044;DHT22;51617;48.158;16.464;2022-07-04T01:15:08;22.20;81.60
65044;DHT22;51617;48.158;16.464;2022-07-04T01:17:34;22.10;82.20
65044;DHT22;51617;48.158;16.464;2022-07-04T01:20:00;22.10;82.40
65044;DHT22;51617;48.158;16.464;2022-07-04T01:22:25;22.10;82.50
65044;DHT22;51617;48.158;16.464;2022-07-04T01:24:51;21.90;82.80
65044;DHT22;51617;48.158;16.464;2022-07-04T01:27:17;21.80;83.30
65044;DHT22;51617;48.158;16.464;2022-07-04T01:29:43;21.70;84.00
65044;DHT22;51617;48.158;16.464;2022-07-04T01:32:09;21.60;84.90
65044;DHT22;51617;48.158;16.464;2022-07-04T01:34:35;21.60;85.50
65044;DHT22;51617;48.158;16.464;2022-07-04T01:37:01;21.60;85.80
65044;DHT22;51617;48.158;16.464;2022-07-04T01:39:27;21.50;87.30
65044;DHT22;51617;48.158;16.464;2022-07-04T01:41:53;21.40;87.50
65044;DHT22;51617;48.158;16.464;2022-07-04T01:44:18;21.40;87.50
65044;DHT22;51617;48.158;16.464;2022-07-04T01:46:44;21.40;87.30
65044;DHT22;51617;48.158;16.464;2022-07-04T01:49:09;21.50;87.30
65044;DHT22;51617;48.158;16.464;2022-07-04T01:51:35;21.60;86.80
65044;DHT22;51617;48.158;16.464;2022-07-04T01:54:00;21.70;86.60
65044;DHT22;51617;48.158;16.464;2022-07-04T01:56:26;21.80;86.30
65044;DHT22;51617;48.158;16.464;2022-07-04T01:58:51;21.80;86.20
65044;DHT22;51617;48.158;16.464;2022-07-04T02:01:17;21.80;85.90
65044;DHT22;51617;48.158;16.464;2022-07-04T02:03:55;21.70;85.40
65044;DHT22;51617;48.158;16.464;2022-07-04T02:06:20;21.60;86.50
65044;DHT22;51617;48.158;16.464;2022-07-04T02:08:46;21.60;87.50
65044;DHT22;51617;48.158;16.464;2022-07-04T02:11:30;21.60;87.40
65044;DHT22;51617;48.158;16.464;2022-07-04T02:14:15;21.50;87.70
65044;DHT22;51617;48.158;16.464;2022-07-04T02:16:40;21.50;87.30
65044;DHT22;51617;48.158;16.464;2022-07-04T02:19:06;21.50;87.40
65044;DHT22;51617;48.158;16.464;2022-07-04T02:21:31;21.30;87.80
65044;DHT22;51617;48.158;16.464;2022-07-04T02:23:57;21.20;88.10
65044;DHT22;51617;48.158;16.464;2022-07-04T02:26:22;21.00;88.80
65044;DHT22;51617;48.158;16.464;2022-07-04T02:28:48;21.00;89.20
65044;DHT22;51617;48.158;16.464;2022-07-04T02:31:13;20.80;89.80
65044;DHT22;51617;48.158;16.464;2022-07-04T02:33:39;20.90;89.20
65044;DHT22;51617;48.158;16.464;2022-07-04T02:36:04;20.80;89.20
65044;DHT22;51617;48.158;16.464;2022-07-04T02:38:30;20.80;89.50
65044;DHT22;51617;48.158;16.464;2022-07-04T02:40:55;20.70;90.00
65044;DHT22;51617;48.158;16.464;2022-07-04T02:43:21;20.80;90.20
65044;DHT22;51617;48.158;16.464;2022-07-04T02:45:47;20.80;89.50
65044;DHT22;51617;48.158;16.464;2022-07-04T02:48:12;20.90;89.00
65044;DHT22;51617;48.158;16.464;2022-07-04T02:50:38;20.90;88.90
65044;DHT22;51617;48.158;16.464;2022-07-04T02:53:03;20.90;88.80
65044;DHT22;51617;48.158;16.464;2022-07-04T02:55:29;20.90;89.10
65044;DHT22;51617;48.158;16.464;2022-07-04T02:57:54;21.00;89.10
65044;DHT22;51617;48.158;16.464;2022-07-04T03:00:20;21.00;89.20
65044;DHT22;51617;48.158;16.464;2022-07-04T03:02:45;21.00;88.90
65044;DHT22;51617;48.158;16.464;2022-07-04T03:05:11;21.10;88.90
65044;DHT22;51617;48.158;16.464;2022-07-04T03:07:36;21.10;89.00
65044;DHT22;51617;48.158;16.464;2022-07-04T03:10:02;21.10;88.90
65044;DHT22;51617;48.158;16.464;2022-07-04T03:12:27;21.20;88.90
65044;DHT22;51617;48.158;16.464;2022-07-04T03:14:53;21.30;88.80
65044;DHT22;51617;48.158;16.464;2022-07-04T03:17:19;21.30;88.60
65044;DHT22;51617;48.158;16.464;2022-07-04T03:19:44;21.30;87.70
65044;DHT22;51617;48.158;16.464;2022-07-04T03:22:10;21.20;87.20
65044;DHT22;51617;48.158;16.464;2022-07-04T03:24:36;21.00;87.70
65044;DHT22;51617;48.158;16.464;2022-07-04T03:27:01;20.90;88.50
65044;DHT22;51617;48.158;16.464;2022-07-04T03:29:27;21.00;88.90
65044;DHT22;51617;48.158;16.464;2022-07-04T03:31:52;21.00;89.10
65044;DHT22;51617;48.158;16.464;2022-07-04T03:34:18;21.10;89.10
65044;DHT22;51617;48.158;16.464;2022-07-04T03:36:43;21.20;89.20
65044;DHT22;51617;48.158;16.464;2022-07-04T03:39:09;21.30;89.00
65044;DHT22;51617;48.158;16.464;2022-07-04T03:41:34;21.30;88.80
65044;DHT22;51617;48.158;16.464;2022-07-04T03:44:01;21.30;88.70
65044;DHT22;51617;48.158;16.464;2022-07-04T03:46:27;21.40;89.00
65044;DHT22;51617;48.158;16.464;2022-07-04T03:48:52;21.40;88.70
65044;DHT22;51617;48.158;16.464;2022-07-04T03:51:18;21.50;89.70
65044;DHT22;51617;48.158;16.464;2022-07-04T03:53:44;21.50;88.60
65044;DHT22;51617;48.158;16.464;2022-07-04T03:56:09;21.60;88.60
65044;DHT22;51617;48.158;16.464;2022-07-04T03:58:35;21.70;88.80
65044;DHT22;51617;48.158;16.464;2022-07-04T04:01:01;21.70;88.50
65044;DHT22;51617;48.158;16.464;2022-07-04T04:03:27;21.90;88.20
65044;DHT22;51617;48.158;16.464;2022-07-04T04:06:11;22.00;87.50
65044;DHT22;51617;48.158;16.464;2022-07-04T04:08:37;22.20;87.10
65044;DHT22;51617;48.158;16.464;2022-07-04T04:11:02;22.30;86.20
65044;DHT22;51617;48.158;16.464;2022-07-04T04:13:28;22.50;85.90
65044;DHT22;51617;48.158;16.464;2022-07-04T04:15:53;22.60;85.80
65044;DHT22;51617;48.158;16.464;2022-07-04T04:18:19;22.70;85.20
65044;DHT22;51617;48.158;16.464;2022-07-04T04:20:44;22.90;84.60
65044;DHT22;51617;48.158;16.464;2022-07-04T04:23:10;23.00;83.80
65044;DHT22;51617;48.158;16.464;2022-07-04T04:25:35;23.10;83.60
65044;DHT22;51617;48.158;16.464;2022-07-04T04:28:01;23.20;83.10
65044;DHT22;51617;48.158;16.464;2022-07-04T04:30:26;23.30;82.60
65044;DHT22;51617;48.158;16.464;2022-07-04T04:32:52;23.40;82.60
65044;DHT22;51617;48.158;16.464;2022-07-04T04:35:17;23.40;82.20
65044;DHT22;51617;48.158;16.464;2022-07-04T04:37:44;23.60;81.80
65044;DHT22;51617;48.158;16.464;2022-07-04T04:40:10;23.60;81.50
65044;DHT22;51617;48.158;16.464;2022-07-04T04:42:36;23.70;81.20
65044;DHT22;51617;48.158;16.464;2022-07-04T04:45:03;23.90;80.80
65044;DHT22;51617;48.158;16.464;2022-07-04T04:47:29;24.00;80.30
65044;DHT22;51617;48.158;16.464;2022-07-04T04:49:54;24.00;80.40
65044;DHT22;51617;48.158;16.464;2022-07-04T04:52:20;24.10;81.10
65044;DHT22;51617;48.158;16.464;2022-07-04T04:54:45;24.30;80.70
65044;DHT22;51617;48.158;16.464;2022-07-04T04:57:11;24.50;80.50
65044;DHT22;51617;48.158;16.464;2022-07-04T04:59:36;24.70;80.30
65044;DHT22;51617;48.158;16.464;2022-07-04T05:02:02;24.90;79.70
65044;DHT22;51617;48.158;16.464;2022-07-04T05:04:28;24.90;78.40
65044;DHT22;51617;48.158;16.464;2022-07-04T05:06:53;25.00;78.90
65044;DHT22;51617;48.158;16.464;2022-07-04T05:09:19;24.90;78.90
65044;DHT22;51617;48.158;16.464;2022-07-04T05:11:45;24.90;79.10
65044;DHT22;51617;48.158;16.464;2022-07-04T05:14:10;25.00;79.50
65044;DHT22;51617;48.158;16.464;2022-07-04T05:16:36;25.10;79.90
65044;DHT22;51617;48.158;16.464;2022-07-04T05:19:01;25.20;80.10
65044;DHT22;51617;48.158;16.464;2022-07-04T05:21:27;25.10;80.40
65044;DHT22;51617;48.158;16.464;2022-07-04T05:23:53;25.00;80.60
65044;DHT22;51617;48.158;16.464;2022-07-04T05:26:19;24.90;81.00
65044;DHT22;51617;48.158;16.464;2022-07-04T05:28:45;25.00;80.90
65044;DHT22;51617;48.158;16.464;2022-07-04T05:31:10;25.00;80.70
65044;DHT22;51617;48.158;16.464;2022-07-04T05:33:36;25.10;80.60
65044;DHT22;51617;48.158;16.464;2022-07-04T05:36:01;25.20;80.20
65044;DHT22;51617;48.158;16.464;2022-07-04T05:38:27;25.50;79.90
65044;DHT22;51617;48.158;16.464;2022-07-04T05:40:52;25.80;78.70
65044;DHT22;51617;48.158;16.464;2022-07-04T05:43:18;26.00;77.70
65044;DHT22;51617;48.158;16.464;2022-07-04T05:45:43;26.00;77.50
65044;DHT22;51617;48.158;16.464;2022-07-04T05:48:09;26.00;77.80
65044;DHT22;51617;48.158;16.464;2022-07-04T05:50:34;26.00;77.70
65044;DHT22;51617;48.158;16.464;2022-07-04T05:53:00;26.00;78.00
65044;DHT22;51617;48.158;16.464;2022-07-04T05:55:26;26.00;77.90
65044;DHT22;51617;48.158;16.464;2022-07-04T05:57:51;25.90;76.90
65044;DHT22;51617;48.158;16.464;2022-07-04T06:00:18;26.00;77.20
65044;DHT22;51617;48.158;16.464;2022-07-04T06:02:44;26.10;77.60
65044;DHT22;51617;48.158;16.464;2022-07-04T06:05:09;26.20;77.30
65044;DHT22;51617;48.158;16.464;2022-07-04T06:07:35;26.40;77.10
65044;DHT22;51617;48.158;16.464;2022-07-04T06:10:00;26.50;75.90
65044;DHT22;51617;48.158;16.464;2022-07-04T06:12:26;26.40;76.00
65044;DHT22;51617;48.158;16.464;2022-07-04T06:14:51;26.60;76.20
65044;DHT22;51617;48.158;16.464;2022-07-04T06:17:17;26.70;75.10
65044;DHT22;51617;48.158;16.464;2022-07-04T06:19:42;26.50;74.20
65044;DHT22;51617;48.158;16.464;2022-07-04T06:22:08;26.30;75.10
65044;DHT22;51617;48.158;16.464;2022-07-04T06:24:33;26.40;75.30
65044;DHT22;51617;48.158;16.464;2022-07-04T06:26:59;26.30;75.70
65044;DHT22;51617;48.158;16.464;2022-07-04T06:29:24;26.50;75.30
65044;DHT22;51617;48.158;16.464;2022-07-04T06:31:50;26.80;75.30
65044;DHT22;51617;48.158;16.464;2022-07-04T06:34:15;26.90;75.10
65044;DHT22;51617;48.158;16.464;2022-07-04T06:36:59;27.10;74.90
65044;DHT22;51617;48.158;16.464;2022-07-04T06:39:25;27.30;73.80
65044;DHT22;51617;48.158;16.464;2022-07-04T06:41:50;27.30;73.70
65044;DHT22;51617;48.158;16.464;2022-07-04T06:44:16;27.30;72.80
65044;DHT22;51617;48.158;16.464;2022-07-04T06:46:41;27.20;73.20
65044;DHT22;51617;48.158;16.464;2022-07-04T06:49:09;27.20;73.20
65044;DHT22;51617;48.158;16.464;2022-07-04T06:51:35;27.30;73.10
65044;DHT22;51617;48.158;16.464;2022-07-04T06:54:00;27.30;73.10
65044;DHT22;51617;48.158;16.464;2022-07-04T06:56:26;27.30;72.80
65044;DHT22;51617;48.158;16.464;2022-07-04T06:58:51;27.40;72.90
65044;DHT22;51617;48.158;16.464;2022-07-04T07:01:17;27.40;72.60
65044;DHT22;51617;48.158;16.464;2022-07-04T07:03:42;27.50;72.30
65044;DHT22;51617;48.158;16.464;2022-07-04T07:06:08;27.50;72.20
65044;DHT22;51617;48.158;16.464;2022-07-04T07:08:33;27.70;72.40
65044;DHT22;51617;48.158;16.464;2022-07-04T07:10:59;27.70;71.50
65044;DHT22;51617;48.158;16.464;2022-07-04T07:13:42;27.70;71.50
65044;DHT22;51617;48.158;16.464;2022-07-04T07:16:08;27.70;70.00
65044;DHT22;51617;48.158;16.464;2022-07-04T07:18:34;27.60;68.10
65044;DHT22;51617;48.158;16.464;2022-07-04T07:21:00;27.50;67.30
65044;DHT22;51617;48.158;16.464;2022-07-04T07:23:25;27.50;67.50
65044;DHT22;51617;48.158;16.464;2022-07-04T07:25:51;27.70;66.50
65044;DHT22;51617;48.158;16.464;2022-07-04T07:28:16;27.80;66.00
65044;DHT22;51617;48.158;16.464;2022-07-04T07:30:43;27.90;65.30
65044;DHT22;51617;48.158;16.464;2022-07-04T07:33:09;27.90;65.50
65044;DHT22;51617;48.158;16.464;2022-07-04T07:35:34;28.00;65.10
65044;DHT22;51617;48.158;16.464;2022-07-04T07:38:00;28.10;64.40
65044;DHT22;51617;48.158;16.464;2022-07-04T07:40:25;28.10;64.40
65044;DHT22;51617;48.158;16.464;2022-07-04T07:42:51;28.10;64.00
65044;DHT22;51617;48.158;16.464;2022-07-04T07:45:17;28.10;64.30
65044;DHT22;51617;48.158;16.464;2022-07-04T07:47:43;28.20;64.60
65044;DHT22;51617;48.158;16.464;2022-07-04T07:50:08;28.40;64.90
65044;DHT22;51617;48.158;16.464;2022-07-04T07:52:34;28.40;64.30
65044;DHT22;51617;48.158;16.464;2022-07-04T07:55:00;28.40;64.10
65044;DHT22;51617;48.158;16.464;2022-07-04T07:57:25;28.50;64.50
65044;DHT22;51617;48.158;16.464;2022-07-04T07:59:51;28.40;63.80
65044;DHT22;51617;48.158;16.464;2022-07-04T08:02:16;28.40;63.70
65044;DHT22;51617;48.158;16.464;2022-07-04T08:04:42;28.40;62.60
65044;DHT22;51617;48.158;16.464;2022-07-04T08:07:08;28.10;62.00
65044;DHT22;51617;48.158;16.464;2022-07-04T08:09:34;28.00;62.00
65044;DHT22;51617;48.158;16.464;2022-07-04T08:12:00;28.00;60.80
65044;DHT22;51617;48.158;16.464;2022-07-04T08:14:26;28.10;60.60
65044;DHT22;51617;48.158;16.464;2022-07-04T08:16:52;28.00;59.60
65044;DHT22;51617;48.158;16.464;2022-07-04T08:19:19;27.90;60.10
65044;DHT22;51617;48.158;16.464;2022-07-04T08:21:44;28.00;60.20
65044;DHT22;51617;48.158;16.464;2022-07-04T08:24:12;28.00;59.70
65044;DHT22;51617;48.158;16.464;2022-07-04T08:26:38;28.10;60.20
65044;DHT22;51617;48.158;16.464;2022-07-04T08:29:03;28.20;59.50
65044;DHT22;51617;48.158;16.464;2022-07-04T08:31:29;28.30;59.20
65044;DHT22;51617;48.158;16.464;2022-07-04T08:33:55;28.40;59.10
65044;DHT22;51617;48.158;16.464;2022-07-04T08:36:20;28.50;58.20
65044;DHT22;51617;48.158;16.464;2022-07-04T08:38:46;28.60;58.10
65044;DHT22;51617;48.158;16.464;2022-07-04T08:41:11;28.50;58.20
65044;DHT22;51617;48.158;16.464;2022-07-04T08:43:37;28.60;58.10
65044;DHT22;51617;48.158;16.464;2022-07-04T08:46:04;28.70;58.00
65044;DHT22;51617;48.158;16.464;2022-07-04T08:48:30;28.80;56.90
65044;DHT22;51617;48.158;16.464;2022-07-04T08:50:57;28.90;56.80
65044;DHT22;51617;48.158;16.464;2022-07-04T08:53:27;28.90;57.00
65044;DHT22;51617;48.158;16.464;2022-07-04T08:55:52;28.90;57.00
65044;DHT22;51617;48.158;16.464;2022-07-04T08:58:37;29.00;56.40
65044;DHT22;51617;48.158;16.464;2022-07-04T09:01:04;29.00;56.40
65044;DHT22;51617;48.158;16.464;2022-07-04T09:03:30;29.00;56.20
65044;DHT22;51617;48.158;16.464;2022-07-04T09:05:56;29.00;56.20
65044;DHT22;51617;48.158;16.464;2022-07-04T09:08:22;29.00;56.40
65044;DHT22;51617;48.158;16.464;2022-07-04T09:10:48;29.00;55.80
65044;DHT22;51617;48.158;16.464;2022-07-04T09:13:15;29.10;56.60
65044;DHT22;51617;48.158;16.464;2022-07-04T09:15:41;29.20;56.30
65044;DHT22;51617;48.158;16.464;2022-07-04T09:18:18;29.10;56.20
65044;DHT22;51617;48.158;16.464;2022-07-04T09:20:44;28.90;56.00
65044;DHT22;51617;48.158;16.464;2022-07-04T09:23:16;28.70;56.30
65044;DHT22;51617;48.158;16.464;2022-07-04T09:25:41;28.60;56.80
65044;DHT22;51617;48.158;16.464;2022-07-04T09:28:07;28.60;57.20
65044;DHT22;51617;48.158;16.464;2022-07-04T09:30:32;28.60;57.40
65044;DHT22;51617;48.158;16.464;2022-07-04T09:32:58;28.60;57.60
65044;DHT22;51617;48.158;16.464;2022-07-04T09:35:28;28.60;57.80
65044;DHT22;51617;48.158;16.464;2022-07-04T09:37:55;28.50;57.70
65044;DHT22;51617;48.158;16.464;2022-07-04T09:42:49;28.50;58.20
65044;DHT22;51617;48.158;16.464;2022-07-04T09:45:14;28.40;58.20
65044;DHT22;51617;48.158;16.464;2022-07-04T09:47:40;28.50;58.10
65044;DHT22;51617;48.158;16.464;2022-07-04T09:52:32;28.50;58.10
65044;DHT22;51617;48.158;16.464;2022-07-04T09:55:08;28.50;57.60
65044;DHT22;51617;48.158;16.464;2022-07-04T09:57:34;28.70;57.70
65044;DHT22;51617;48.158;16.464;2022-07-04T10:02:43;29.00;57.20
65044;DHT22;51617;48.158;16.464;2022-07-04T10:05:09;29.10;57.00
65044;DHT22;51617;48.158;16.464;2022-07-04T10:07:36;29.30;56.70
65044;DHT22;51617;48.158;16.464;2022-07-04T10:10:21;29.30;56.40
65044;DHT22;51617;48.158;16.464;2022-07-04T10:12:50;29.40;56.10
65044;DHT22;51617;48.158;16.464;2022-07-04T10:15:16;29.50;55.80
65044;DHT22;51617;48.158;16.464;2022-07-04T10:17:41;29.50;55.70
65044;DHT22;51617;48.158;16.464;2022-07-04T10:20:07;29.50;55.60
65044;DHT22;51617;48.158;16.464;2022-07-04T10:22:34;29.60;55.70
65044;DHT22;51617;48.158;16.464;2022-07-04T10:25:00;29.60;54.70
65044;DHT22;51617;48.158;16.464;2022-07-04T10:27:26;29.70;54.70
65044;DHT22;51617;48.158;16.464;2022-07-04T10:29:51;29.70;54.80
65044;DHT22;51617;48.158;16.464;2022-07-04T10:32:17;29.70;54.70
65044;DHT22;51617;48.158;16.464;2022-07-04T10:34:44;29.60;54.80
65044;DHT22;51617;48.158;16.464;2022-07-04T10:37:09;29.70;54.70
65044;DHT22;51617;48.158;16.464;2022-07-04T10:39:35;29.70;55.30
65044;DHT22;51617;48.158;16.464;2022-07-04T10:42:00;29.60;54.80
65044;DHT22;51617;48.158;16.464;2022-07-04T10:44:27;29.60;55.00
65044;DHT22;51617;48.158;16.464;2022-07-04T10:47:00;29.50;55.00
65044;DHT22;51617;48.158;16.464;2022-07-04T10:49:26;29.50;54.40
65044;DHT22;51617;48.158;16.464;2022-07-04T10:51:57;29.50;55.10
65044;DHT22;51617;48.158;16.464;2022-07-04T10:54:33;29.50;54.80
65044;DHT22;51617;48.158;16.464;2022-07-04T10:59:31;29.50;55.00
65044;DHT22;51617;48.158;16.464;2022-07-04T11:07:15;29.90;54.00
65044;DHT22;51617;48.158;16.464;2022-07-04T11:09:41;30.20;53.10
65044;DHT22;51617;48.158;16.464;2022-07-04T11:12:08;30.30;53.00
65044;DHT22;51617;48.158;16.464;2022-07-04T11:14:34;30.50;52.70
65044;DHT22;51617;48.158;16.464;2022-07-04T11:17:01;30.60;52.20
65044;DHT22;51617;48.158;16.464;2022-07-04T11:19:27;30.70;52.20
65044;DHT22;51617;48.158;16.464;2022-07-04T11:21:56;30.60;52.20
65044;DHT22;51617;48.158;16.464;2022-07-04T11:24:22;30.70;51.90
65044;DHT22;51617;48.158;16.464;2022-07-04T11:26:48;30.70;52.00
65044;DHT22;51617;48.158;16.464;2022-07-04T11:29:13;30.70;52.10
65044;DHT22;51617;48.158;16.464;2022-07-04T11:31:40;30.80;52.00
65044;DHT22;51617;48.158;16.464;2022-07-04T11:34:06;30.80;51.80
65044;DHT22;51617;48.158;16.464;2022-07-04T11:36:31;30.90;52.30
65044;DHT22;51617;48.158;16.464;2022-07-04T11:38:58;31.20;52.10
65044;DHT22;51617;48.158;16.464;2022-07-04T11:44:13;31.60;51.20
65044;DHT22;51617;48.158;16.464;2022-07-04T11:47:16;31.60;50.70
65044;DHT22;51617;48.158;16.464;2022-07-04T11:49:43;31.60;51.30
65044;DHT22;51617;48.158;16.464;2022-07-04T11:52:09;31.60;50.70
65044;DHT22;51617;48.158;16.464;2022-07-04T11:54:35;31.80;51.10
65044;DHT22;51617;48.158;16.464;2022-07-04T11:57:14;32.00;51.60
65044;DHT22;51617;48.158;16.464;2022-07-04T11:59:40;32.20;52.10
65044;DHT22;51617;48.158;16.464;2022-07-04T12:02:12;32.40;51.60
65044;DHT22;51617;48.158;16.464;2022-07-04T12:04:38;32.50;51.10
65044;DHT22;51617;48.158;16.464;2022-07-04T12:07:09;32.70;50.70
65044;DHT22;51617;48.158;16.464;2022-07-04T12:09:35;32.80;49.30
65044;DHT22;51617;48.158;16.464;2022-07-04T12:12:00;32.40;49.80
65044;DHT22;51617;48.158;16.464;2022-07-04T12:14:26;32.50;49.90
65044;DHT22;51617;48.158;16.464;2022-07-04T12:19:36;32.50;50.60
65044;DHT22;51617;48.158;16.464;2022-07-04T12:22:02;32.60;49.30
65044;DHT22;51617;48.158;16.464;2022-07-04T12:24:27;32.50;49.80
65044;DHT22;51617;48.158;16.464;2022-07-04T12:26:53;32.30;49.20
65044;DHT22;51617;48.158;16.464;2022-07-04T12:29:25;32.30;49.30
65044;DHT22;51617;48.158;16.464;2022-07-04T12:31:52;32.40;49.40
65044;DHT22;51617;48.158;16.464;2022-07-04T12:34:20;32.40;48.70
65044;DHT22;51617;48.158;16.464;2022-07-04T12:36:53;32.30;48.00
65044;DHT22;51617;48.158;16.464;2022-07-04T12:42:14;32.10;48.10
65044;DHT22;51617;48.158;16.464;2022-07-04T12:44:39;32.40;47.80
65044;DHT22;51617;48.158;16.464;2022-07-04T12:47:06;32.70;47.80
65044;DHT22;51617;48.158;16.464;2022-07-04T12:49:32;32.90;47.50
65044;DHT22;51617;48.158;16.464;2022-07-04T12:54:35;33.10;45.80
65044;DHT22;51617;48.158;16.464;2022-07-04T12:59:32;33.30;45.80
65044;DHT22;51617;48.158;16.464;2022-07-04T13:01:58;33.50;45.00
65044;DHT22;51617;48.158;16.464;2022-07-04T13:04:24;33.60;45.00
65044;DHT22;51617;48.158;16.464;2022-07-04T13:06:49;33.80;45.20
65044;DHT22;51617;48.158;16.464;2022-07-04T13:09:15;33.90;43.30
65044;DHT22;51617;48.158;16.464;2022-07-04T13:11:40;34.10;42.90
65044;DHT22;51617;48.158;16.464;2022-07-04T13:14:25;34.10;43.60
65044;DHT22;51617;48.158;16.464;2022-07-04T13:16:50;34.50;43.60
65044;DHT22;51617;48.158;16.464;2022-07-04T13:19:16;34.60;43.10
65044;DHT22;51617;48.158;16.464;2022-07-04T13:21:44;34.60;43.10
65044;DHT22;51617;48.158;16.464;2022-07-04T13:24:10;34.60;45.00
65044;DHT22;51617;48.158;16.464;2022-07-04T13:26:35;34.80;43.10
65044;DHT22;51617;48.158;16.464;2022-07-04T13:29:03;34.70;42.40
65044;DHT22;51617;48.158;16.464;2022-07-04T13:31:28;34.80;42.90
65044;DHT22;51617;48.158;16.464;2022-07-04T13:33:54;34.90;43.00
65044;DHT22;51617;48.158;16.464;2022-07-04T13:36:20;34.60;43.20
65044;DHT22;51617;48.158;16.464;2022-07-04T13:38:45;34.60;43.30
65044;DHT22;51617;48.158;16.464;2022-07-04T13:41:11;34.60;45.70
65044;DHT22;51617;48.158;16.464;2022-07-04T13:43:36;34.40;47.40
65044;DHT22;51617;48.158;16.464;2022-07-04T13:46:02;34.20;48.60
65044;DHT22;51617;48.158;16.464;2022-07-04T13:48:28;34.10;49.10
65044;DHT22;51617;48.158;16.464;2022-07-04T13:50:54;34.00;49.30
65044;DHT22;51617;48.158;16.464;2022-07-04T13:53:21;34.00;49.10
65044;DHT22;51617;48.158;16.464;2022-07-04T13:55:46;34.10;49.80
65044;DHT22;51617;48.158;16.464;2022-07-04T13:58:12;34.20;49.30
65044;DHT22;51617;48.158;16.464;2022-07-04T14:00:38;34.20;49.80
65044;DHT22;51617;48.158;16.464;2022-07-04T14:03:06;33.90;49.80
65044;DHT22;51617;48.158;16.464;2022-07-04T14:05:31;33.60;50.40
65044;DHT22;51617;48.158;16.464;2022-07-04T14:07:57;33.50;50.20
65044;DHT22;51617;48.158;16.464;2022-07-04T14:10:23;33.50;50.80
65044;DHT22;51617;48.158;16.464;2022-07-04T14:12:49;33.40;50.50
65044;DHT22;51617;48.158;16.464;2022-07-04T14:15:14;33.40;50.40
65044;DHT22;51617;48.158;16.464;2022-07-04T14:17:40;33.60;50.40
65044;DHT22;51617;48.158;16.464;2022-07-04T14:20:06;33.60;49.50
65044;DHT22;51617;48.158;16.464;2022-07-04T14:22:33;33.70;49.60
65044;DHT22;51617;48.158;16.464;2022-07-04T14:24:59;33.80;48.60
65044;DHT22;51617;48.158;16.464;2022-07-04T14:27:24;33.80;48.60
65044;DHT22;51617;48.158;16.464;2022-07-04T14:29:50;33.70;48.00
65044;DHT22;51617;48.158;16.464;2022-07-04T14:32:15;33.60;48.20
65044;DHT22;51617;48.158;16.464;2022-07-04T14:34:41;34.10;47.70
65044;DHT22;51617;48.158;16.464;2022-07-04T14:37:06;34.30;47.00
65044;DHT22;51617;48.158;16.464;2022-07-04T14:39:32;34.40;46.90
65044;DHT22;51617;48.158;16.464;2022-07-04T14:41:57;34.20;47.10
65044;DHT22;51617;48.158;16.464;2022-07-04T14:44:23;34.00;47.50
65044;DHT22;51617;48.158;16.464;2022-07-04T14:46:48;33.70;47.70
65044;DHT22;51617;48.158;16.464;2022-07-04T14:49:14;33.50;48.10
65044;DHT22;51617;48.158;16.464;2022-07-04T14:51:39;33.40;48.10
65044;DHT22;51617;48.158;16.464;2022-07-04T14:54:06;33.20;48.70
65044;DHT22;51617;48.158;16.464;2022-07-04T14:56:32;33.10;48.90
65044;DHT22;51617;48.158;16.464;2022-07-04T14:58:58;32.90;49.20
65044;DHT22;51617;48.158;16.464;2022-07-04T15:01:23;32.70;49.60
65044;DHT22;51617;48.158;16.464;2022-07-04T15:03:49;32.60;49.80
65044;DHT22;51617;48.158;16.464;2022-07-04T15:06:14;32.50;49.80
65044;DHT22;51617;48.158;16.464;2022-07-04T15:08:40;32.40;49.90
65044;DHT22;51617;48.158;16.464;2022-07-04T15:11:05;32.30;50.10
65044;DHT22;51617;48.158;16.464;2022-07-04T15:13:31;32.20;50.20
65044;DHT22;51617;48.158;16.464;2022-07-04T15:15:56;32.20;50.40
65044;DHT22;51617;48.158;16.464;2022-07-04T15:18:22;32.10;50.20
65044;DHT22;51617;48.158;16.464;2022-07-04T15:20:48;31.90;50.60
65044;DHT22;51617;48.158;16.464;2022-07-04T15:23:32;31.70;51.10
65044;DHT22;51617;48.158;16.464;2022-07-04T15:26:16;31.40;51.50
65044;DHT22;51617;48.158;16.464;2022-07-04T15:28:41;31.30;52.10
65044;DHT22;51617;48.158;16.464;2022-07-04T15:31:07;31.20;53.10
65044;DHT22;51617;48.158;16.464;2022-07-04T15:33:32;31.00;54.00
65044;DHT22;51617;48.158;16.464;2022-07-04T15:35:58;30.80;54.30
65044;DHT22;51617;48.158;16.464;2022-07-04T15:38:24;30.80;54.50
65044;DHT22;51617;48.158;16.464;2022-07-04T15:40:50;30.60;54.80